Time;durP1;ratioP1;P1;durP2;ratioP2;P2;SDS_P1;SDS_P2;PMS_P1;PMS_P2;Temp;Humidity;BMP_temperature;BMP_pressure;BME280_temperature;BME280_humidity;BME280_pressure;Samples;Min_cycle;Max_cycle;Signal;HPM_P1;HPM_P2
2022/03/29 00:01:59;;;;;;;26.03;14.23;;;6.80;99.90;;;;;;5066900;28;20482;-66
2022/03/29 00:04:25;;;;;;;26.02;14.35;;;6.80;99.90;;;;;;5065902;28;20072;-67
2022/03/29 00:06:53;;;;;;;29.25;14.68;;;6.80;99.90;;;;;;5067327;28;20045;-66
2022/03/29 00:09:18;;;;;;;27.63;14.48;;;6.80;99.90;;;;;;5066434;28;20041;-67
2022/03/29 00:11:44;;;;;;;25.70;14.65;;;6.70;99.90;;;;;;5067629;28;20037;-66
2022/03/29 00:14:12;;;;;;;29.45;15.18;;;6.70;99.90;;;;;;5064414;28;20056;-66
2022/03/29 00:16:39;;;;;;;25.17;14.60;;;6.70;99.90;;;;;;5067517;28;20115;-66
2022/03/29 00:19:05;;;;;;;31.63;16.23;;;6.70;99.90;;;;;;5065716;28;20115;-66
2022/03/29 00:21:31;;;;;;;32.80;16.02;;;6.60;99.90;;;;;;5067248;28;20391;-66
2022/03/29 00:23:57;;;;;;;31.65;16.85;;;6.60;99.90;;;;;;5066884;28;20174;-66
2022/03/29 00:26:23;;;;;;;29.85;17.08;;;6.60;99.90;;;;;;5063973;28;20155;-66
2022/03/29 00:28:49;;;;;;;30.40;16.45;;;6.60;99.90;;;;;;5066922;28;20127;-66
2022/03/29 00:31:19;;;;;;;32.22;16.67;;;6.60;99.90;;;;;;5065197;28;20032;-66
2022/03/29 00:33:47;;;;;;;34.25;17.27;;;6.60;99.90;;;;;;5066590;28;20111;-67
2022/03/29 00:36:13;;;;;;;27.38;15.35;;;6.60;99.90;;;;;;5065454;28;20044;-66
2022/03/29 00:38:38;;;;;;;28.38;15.52;;;6.60;99.90;;;;;;5066755;28;20036;-66
2022/03/29 00:41:04;;;;;;;37.08;16.88;;;6.70;99.90;;;;;;5065499;28;20047;-66
2022/03/29 00:43:30;;;;;;;32.20;14.93;;;6.70;99.90;;;;;;5067164;28;20080;-67
2022/03/29 00:45:56;;;;;;;33.92;17.35;;;6.60;99.90;;;;;;5066415;28;20147;-67
2022/03/29 00:48:22;;;;;;;33.80;17.40;;;6.60;99.90;;;;;;5065139;28;20599;-67
2022/03/29 00:50:48;;;;;;;30.52;16.45;;;6.50;99.90;;;;;;5066719;28;20056;-67
2022/03/29 00:53:16;;;;;;;29.70;16.02;;;6.50;99.90;;;;;;5066330;28;20044;-66
2022/03/29 00:55:42;;;;;;;32.30;16.10;;;6.50;99.90;;;;;;5066438;28;20048;-67
2022/03/29 00:58:12;;;;;;;31.50;16.10;;;6.40;99.90;;;;;;5065934;28;20398;-66
2022/03/29 01:00:38;;;;;;;33.27;15.73;;;6.40;99.90;;;;;;5066598;28;20408;-67
2022/03/29 01:03:04;;;;;;;34.15;16.30;;;6.40;99.90;;;;;;5067293;28;20352;-67
2022/03/29 01:05:31;;;;;;;34.72;17.13;;;6.40;99.90;;;;;;5065592;28;20529;-67
2022/03/29 01:07:58;;;;;;;33.33;16.20;;;6.40;99.90;;;;;;5066510;28;20105;-67
2022/03/29 01:10:24;;;;;;;36.63;15.02;;;6.50;99.90;;;;;;5064460;28;20491;-66
2022/03/29 01:12:51;;;;;;;35.38;16.77;;;6.40;99.90;;;;;;5066754;28;20041;-66
2022/03/29 01:15:19;;;;;;;32.92;16.33;;;6.40;99.90;;;;;;5065685;28;20116;-66
2022/03/29 01:17:47;;;;;;;39.00;16.92;;;6.40;99.90;;;;;;5065449;28;20041;-67
2022/03/29 01:20:17;;;;;;;34.03;16.00;;;6.40;99.90;;;;;;5064343;28;20512;-66
2022/03/29 01:22:48;;;;;;;44.22;16.48;;;6.40;99.90;;;;;;5065620;28;20042;-66
2022/03/29 01:25:18;;;;;;;37.30;16.60;;;6.40;99.90;;;;;;5066426;28;20135;-66
2022/03/29 01:27:45;;;;;;;40.72;16.23;;;6.40;99.90;;;;;;5066292;28;20517;-66
2022/03/29 01:30:13;;;;;;;33.13;16.45;;;6.40;99.90;;;;;;5066005;28;20056;-66
2022/03/29 01:32:41;;;;;;;33.85;15.85;;;6.40;99.90;;;;;;5065946;28;20495;-66
2022/03/29 01:35:08;;;;;;;37.10;17.13;;;6.40;99.90;;;;;;5079544;28;20089;-66
2022/03/29 01:37:35;;;;;;;32.58;16.77;;;6.40;99.90;;;;;;5090327;28;20062;-66
2022/03/29 01:40:15;;;;;;;41.47;17.15;;;6.40;99.90;;;;;;5089373;28;20174;-66
2022/03/29 01:42:47;;;;;;;37.88;17.83;;;6.40;99.90;;;;;;5090632;28;20040;-66
2022/03/29 01:45:13;;;;;;;29.92;16.48;;;6.40;99.90;;;;;;5081573;28;20525;-66
2022/03/29 01:47:38;;;;;;;42.58;16.73;;;6.40;99.90;;;;;;5070065;28;20356;-66
2022/03/29 01:50:05;;;;;;;39.72;17.38;;;6.40;99.90;;;;;;5068918;28;20067;-66
2022/03/29 01:52:38;;;;;;;34.75;16.98;;;6.40;99.90;;;;;;5102048;28;20075;-66
2022/03/29 01:55:04;;;;;;;32.85;17.80;;;6.40;99.90;;;;;;5071019;28;20127;-66
2022/03/29 01:57:30;;;;;;;38.38;16.92;;;6.40;99.90;;;;;;5087382;28;20147;-66
2022/03/29 02:02:40;;;;;;;37.40;18.88;;;6.40;99.90;;;;;;5087206;28;20813;-66
2022/03/29 02:05:05;;;;;;;34.28;17.67;;;6.40;99.90;;;;;;5085488;28;20048;-66
2022/03/29 02:07:31;;;;;;;37.63;16.77;;;6.40;99.90;;;;;;5052004;28;20488;-66
2022/03/29 02:09:57;;;;;;;35.10;17.75;;;6.40;99.90;;;;;;5088356;28;20044;-66
2022/03/29 02:12:22;;;;;;;36.10;16.27;;;6.50;99.90;;;;;;5088328;28;20110;-66
2022/03/29 02:14:48;;;;;;;36.70;17.58;;;6.40;99.90;;;;;;5087501;28;20494;-66
2022/03/29 02:17:14;;;;;;;43.92;16.60;;;6.40;99.90;;;;;;5076295;28;20040;-66
2022/03/29 02:19:39;;;;;;;34.58;16.90;;;6.40;99.90;;;;;;5083673;28;20044;-66
2022/03/29 02:22:05;;;;;;;36.38;16.92;;;6.40;99.90;;;;;;5069523;28;20049;-66
2022/03/29 02:24:31;;;;;;;37.13;16.52;;;6.40;99.90;;;;;;5067690;28;20056;-66
2022/03/29 02:26:57;;;;;;;37.30;16.27;;;6.40;99.90;;;;;;5075811;28;20051;-66
2022/03/29 02:29:22;;;;;;;31.73;16.48;;;6.50;99.90;;;;;;5088538;28;20047;-66
2022/03/29 02:31:48;;;;;;;34.63;16.30;;;6.40;99.90;;;;;;5087471;28;20036;-66
2022/03/29 02:34:14;;;;;;;37.20;16.85;;;6.40;99.90;;;;;;5074012;28;20170;-66
2022/03/29 02:36:39;;;;;;;39.70;18.17;;;6.40;99.90;;;;;;5068590;28;20052;-66
2022/03/29 02:39:05;;;;;;;36.45;15.73;;;6.40;99.90;;;;;;5067846;28;20049;-66
2022/03/29 02:41:31;;;;;;;30.27;16.95;;;6.40;99.90;;;;;;5066323;28;20045;-66
2022/03/29 02:43:56;;;;;;;32.10;16.55;;;6.40;99.90;;;;;;5068512;28;20123;-66
2022/03/29 02:46:22;;;;;;;40.50;17.60;;;6.40;99.90;;;;;;5065582;28;20057;-66
2022/03/29 02:48:48;;;;;;;44.60;16.98;;;6.40;99.90;;;;;;5082267;28;20418;-66
2022/03/29 02:51:13;;;;;;;28.85;16.00;;;6.40;99.90;;;;;;5087135;28;20177;-66
2022/03/29 02:53:39;;;;;;;32.78;16.98;;;6.40;99.90;;;;;;5086622;28;20036;-66
2022/03/29 02:56:05;;;;;;;42.95;17.58;;;6.40;99.90;;;;;;5087808;28;20047;-66
2022/03/29 02:58:30;;;;;;;35.60;17.23;;;6.40;99.90;;;;;;5078023;28;20044;-66
2022/03/29 03:00:56;;;;;;;35.95;19.35;;;6.40;99.90;;;;;;5068876;28;20051;-66
2022/03/29 03:03:22;;;;;;;46.45;19.17;;;6.40;99.90;;;;;;5067464;28;20036;-66
2022/03/29 03:05:48;;;;;;;45.22;20.13;;;6.40;99.90;;;;;;5068294;28;20498;-66
2022/03/29 03:08:13;;;;;;;43.97;21.13;;;6.50;99.90;;;;;;5069179;28;20044;-65
2022/03/29 03:10:39;;;;;;;43.22;19.75;;;6.50;99.90;;;;;;5067755;28;20048;-66
2022/03/29 03:13:05;;;;;;;37.78;20.00;;;6.50;99.90;;;;;;5068415;28;20029;-66
2022/03/29 03:15:30;;;;;;;32.92;19.15;;;6.50;99.90;;;;;;5067169;28;20048;-66
2022/03/29 03:17:56;;;;;;;39.65;20.70;;;6.50;99.90;;;;;;5067240;28;20040;-66
2022/03/29 03:20:23;;;;;;;43.35;20.50;;;6.50;99.90;;;;;;5067674;28;20514;-67
2022/03/29 03:22:50;;;;;;;37.33;19.83;;;6.50;99.90;;;;;;5068144;28;20418;-66
2022/03/29 03:25:17;;;;;;;41.30;20.48;;;6.50;99.90;;;;;;5065795;28;20041;-66
2022/03/29 03:27:43;;;;;;;41.22;20.05;;;6.50;99.90;;;;;;5067997;28;20474;-66
2022/03/29 03:30:13;;;;;;;37.53;21.83;;;6.50;99.90;;;;;;5069030;28;20044;-66
2022/03/29 03:32:41;;;;;;;42.38;21.15;;;6.50;99.90;;;;;;5065603;28;20102;-66
2022/03/29 03:35:07;;;;;;;47.15;21.65;;;6.40;99.90;;;;;;5068225;28;20048;-66
2022/03/29 03:37:34;;;;;;;36.70;20.73;;;6.40;99.90;;;;;;5065930;28;20053;-66
2022/03/29 03:40:01;;;;;;;37.83;18.70;;;6.40;99.90;;;;;;5068922;28;20556;-66
2022/03/29 03:42:27;;;;;;;38.00;19.55;;;6.40;99.90;;;;;;5046462;28;20112;-66
2022/03/29 03:44:53;;;;;;;39.75;19.48;;;6.40;99.90;;;;;;5047810;28;20088;-66
2022/03/29 03:47:19;;;;;;;45.83;19.88;;;6.40;99.90;;;;;;5047293;28;20121;-66
2022/03/29 03:49:45;;;;;;;41.05;19.02;;;6.40;99.90;;;;;;5078836;28;20099;-66
2022/03/29 03:52:11;;;;;;;56.10;17.73;;;6.40;99.90;;;;;;5063685;28;20072;-66
2022/03/29 03:54:37;;;;;;;42.95;16.67;;;6.40;99.90;;;;;;5066189;28;20131;-66
2022/03/29 03:57:04;;;;;;;36.47;15.07;;;6.40;99.90;;;;;;5067680;28;20062;-66
2022/03/29 03:59:30;;;;;;;37.67;15.20;;;6.40;99.90;;;;;;5065973;28;20040;-66
2022/03/29 04:01:57;;;;;;;35.17;15.95;;;6.40;99.90;;;;;;5068850;28;20072;-66
2022/03/29 04:04:23;;;;;;;33.75;16.63;;;6.40;99.90;;;;;;5066046;28;20044;-66
2022/03/29 04:06:49;;;;;;;33.00;15.40;;;6.50;99.90;;;;;;5066746;28;20062;-66
2022/03/29 04:09:14;;;;;;;33.35;15.35;;;6.50;99.90;;;;;;5067178;28;20330;-66
2022/03/29 04:11:40;;;;;;;36.88;15.88;;;6.50;99.90;;;;;;5066372;28;20044;-66
2022/03/29 04:14:06;;;;;;;37.95;16.70;;;6.50;99.90;;;;;;5066101;28;20048;-66
2022/03/29 04:16:32;;;;;;;34.30;17.05;;;6.50;99.90;;;;;;5098527;28;20044;-66
2022/03/29 04:18:57;;;;;;;32.33;16.63;;;6.50;99.90;;;;;;5066326;28;20186;-66
2022/03/29 04:21:23;;;;;;;39.35;16.83;;;6.50;99.90;;;;;;5065551;28;20403;-66
2022/03/29 04:23:49;;;;;;;44.67;17.88;;;6.50;99.90;;;;;;5085818;28;20064;-66
2022/03/29 04:26:14;;;;;;;37.17;16.55;;;6.50;99.90;;;;;;5046612;28;20131;-66
2022/03/29 04:28:40;;;;;;;40.35;16.70;;;6.50;99.90;;;;;;5046085;28;20052;-66
2022/03/29 04:31:08;;;;;;;40.28;16.23;;;6.50;99.90;;;;;;5047514;28;20045;-66
2022/03/29 04:33:34;;;;;;;48.60;17.83;;;6.50;99.90;;;;;;5062706;28;20060;-66
2022/03/29 04:35:59;;;;;;;42.28;16.80;;;6.50;99.90;;;;;;5087189;28;20063;-66
2022/03/29 04:38:25;;;;;;;44.80;16.73;;;6.50;99.90;;;;;;5085344;28;20048;-66
2022/03/29 04:40:51;;;;;;;35.53;16.33;;;6.50;99.90;;;;;;5087174;28;20112;-66
2022/03/29 04:43:17;;;;;;;30.58;15.10;;;6.50;99.90;;;;;;5081861;28;20040;-66
2022/03/29 04:45:43;;;;;;;40.88;16.50;;;6.60;99.90;;;;;;5064345;28;20067;-66
2022/03/29 04:48:09;;;;;;;34.40;16.17;;;6.50;99.90;;;;;;5066834;28;20093;-66
2022/03/29 04:50:35;;;;;;;32.53;15.32;;;6.60;99.90;;;;;;5080695;28;20706;-66
2022/03/29 04:53:01;;;;;;;38.13;15.73;;;6.50;99.90;;;;;;5066469;28;20117;-66
2022/03/29 04:55:26;;;;;;;41.88;15.40;;;6.50;99.90;;;;;;5081542;28;20048;-66
2022/03/29 04:57:52;;;;;;;38.42;16.63;;;6.60;99.90;;;;;;5056536;28;20076;-66
2022/03/29 05:00:22;;;;;;;37.58;16.60;;;6.60;99.90;;;;;;5066028;28;20044;-66
2022/03/29 05:02:50;;;;;;;38.17;17.08;;;6.60;99.90;;;;;;5066121;28;20456;-66
2022/03/29 05:05:16;;;;;;;39.78;19.70;;;6.60;99.90;;;;;;5077900;28;20090;-66
2022/03/29 05:07:42;;;;;;;40.60;18.92;;;6.60;99.90;;;;;;5083134;28;20052;-66
2022/03/29 05:10:09;;;;;;;41.53;19.92;;;6.60;99.90;;;;;;5085750;28;20098;-66
2022/03/29 05:12:49;;;;;;;40.83;19.50;;;6.60;99.90;;;;;;5083217;28;20048;-66
2022/03/29 05:15:17;;;;;;;46.35;18.73;;;6.60;99.90;;;;;;5087044;28;20085;-66
2022/03/29 05:17:44;;;;;;;39.05;19.58;;;6.60;99.90;;;;;;5085407;28;20039;-66
2022/03/29 05:20:11;;;;;;;39.10;18.92;;;6.60;99.90;;;;;;5086576;28;20410;-66
2022/03/29 05:22:44;;;;;;;52.40;18.73;;;6.60;99.90;;;;;;5082696;28;20566;-66
2022/03/29 05:25:11;;;;;;;44.67;20.08;;;6.50;99.90;;;;;;5084354;28;20406;-66
2022/03/29 05:27:37;;;;;;;47.75;21.15;;;6.50;99.90;;;;;;5084790;28;20100;-66
2022/03/29 05:30:03;;;;;;;49.13;20.48;;;6.60;99.90;;;;;;5085452;28;20044;-66
2022/03/29 05:32:29;;;;;;;46.33;20.27;;;6.60;99.90;;;;;;5076630;28;20175;-66
2022/03/29 05:34:55;;;;;;;42.03;18.88;;;6.60;99.90;;;;;;5065535;28;20496;-66
2022/03/29 05:37:21;;;;;;;53.55;21.67;;;6.60;99.90;;;;;;5066156;28;20049;-66
2022/03/29 05:39:47;;;;;;;48.45;22.92;;;6.60;99.90;;;;;;5065587;28;20083;-66
2022/03/29 05:42:12;;;;;;;43.97;21.55;;;6.50;99.90;;;;;;5068861;28;20040;-66
2022/03/29 05:44:38;;;;;;;53.78;20.05;;;6.60;99.90;;;;;;5085705;28;20498;-66
2022/03/29 05:49:51;;;;;;;41.22;19.83;;;6.60;99.90;;;;;;5085877;28;20494;-66
2022/03/29 05:52:17;;;;;;;43.78;19.27;;;6.60;99.90;;;;;;5066045;28;20044;-66
2022/03/29 05:54:45;;;;;;;48.55;19.67;;;6.60;99.90;;;;;;5084114;28;20043;-66
2022/03/29 05:57:14;;;;;;;43.72;19.02;;;6.70;99.90;;;;;;5086165;28;20191;-66
2022/03/29 05:59:41;;;;;;;47.08;20.65;;;6.70;99.90;;;;;;5083567;28;20044;-66
2022/03/29 06:02:07;;;;;;;58.47;19.48;;;6.70;99.90;;;;;;5086035;28;20067;-66
2022/03/29 06:04:36;;;;;;;44.75;18.50;;;6.70;99.90;;;;;;5066865;28;20083;-66
2022/03/29 06:07:04;;;;;;;41.53;19.10;;;6.70;99.90;;;;;;5065059;28;20126;-66
2022/03/29 06:09:31;;;;;;;49.28;19.65;;;6.80;99.90;;;;;;5081696;28;20040;-66
2022/03/29 06:11:57;;;;;;;39.72;16.77;;;6.80;99.90;;;;;;5073579;28;20048;-66
2022/03/29 06:14:23;;;;;;;41.75;17.45;;;6.80;99.90;;;;;;5065358;28;20048;-66
2022/03/29 06:16:49;;;;;;;43.85;16.92;;;6.80;99.90;;;;;;5065040;28;20394;-66
2022/03/29 06:19:14;;;;;;;35.35;14.15;;;6.80;99.90;;;;;;5064522;28;20052;-66
2022/03/29 06:21:41;;;;;;;36.80;12.93;;;6.80;99.90;;;;;;5073893;28;20040;-66
2022/03/29 06:24:09;;;;;;;38.50;11.85;;;6.90;99.90;;;;;;5089907;28;20119;-66
2022/03/29 06:26:41;;;;;;;30.80;9.60;;;6.90;99.90;;;;;;5069650;28;20043;-67
2022/03/29 06:29:09;;;;;;;40.92;9.98;;;6.90;99.90;;;;;;5087909;28;20044;-66
2022/03/29 06:31:36;;;;;;;35.30;10.65;;;6.90;99.90;;;;;;5085990;28;20081;-66
2022/03/29 06:34:02;;;;;;;29.98;9.77;;;6.90;99.90;;;;;;5083205;28;20040;-67
2022/03/29 06:36:29;;;;;;;35.55;9.68;;;6.90;99.90;;;;;;5089404;28;20059;-66
2022/03/29 06:38:55;;;;;;;37.22;9.63;;;6.90;99.90;;;;;;5088095;28;20377;-66
2022/03/29 06:41:21;;;;;;;41.97;9.20;;;6.90;99.90;;;;;;5090009;28;20051;-66
2022/03/29 06:43:47;;;;;;;30.05;9.70;;;6.90;99.90;;;;;;5071902;28;20383;-66
2022/03/29 06:46:14;;;;;;;43.67;9.90;;;6.90;99.90;;;;;;5067283;28;20056;-66
2022/03/29 06:48:41;;;;;;;33.85;9.43;;;6.90;99.90;;;;;;5067909;28;20053;-66
2022/03/29 06:51:13;;;;;;;39.58;9.57;;;6.90;99.90;;;;;;5069442;28;20032;-66
2022/03/29 06:53:39;;;;;;;37.63;8.82;;;6.90;99.90;;;;;;5066342;28;20128;-66
2022/03/29 06:56:07;;;;;;;36.97;9.07;;;6.90;99.90;;;;;;5068279;28;20045;-66
2022/03/29 06:58:34;;;;;;;35.95;9.93;;;6.90;99.90;;;;;;5067521;28;20510;-66
2022/03/29 07:01:00;;;;;;;34.28;9.48;;;7.00;99.90;;;;;;5073046;28;20135;-67
2022/03/29 07:03:27;;;;;;;40.72;9.93;;;7.00;99.90;;;;;;5079831;28;20483;-66
2022/03/29 07:05:53;;;;;;;39.83;10.00;;;7.00;99.90;;;;;;5072281;28;20417;-66
2022/03/29 07:08:20;;;;;;;33.60;9.32;;;7.10;99.90;;;;;;5088602;28;20091;-66
2022/03/29 07:13:31;;;;;;;28.15;8.75;;;7.20;99.90;;;;;;5087597;28;20041;-66
2022/03/29 07:15:57;;;;;;;33.85;10.70;;;7.30;99.90;;;;;;5081363;28;20380;-67
2022/03/29 07:18:23;;;;;;;38.97;9.60;;;7.20;99.90;;;;;;5065834;28;20043;-66
2022/03/29 07:20:48;;;;;;;43.75;11.13;;;7.30;99.90;;;;;;5068109;28;20052;-66
2022/03/29 07:23:14;;;;;;;37.10;12.15;;;7.30;99.90;;;;;;5067285;28;20077;-66
2022/03/29 07:25:40;;;;;;;36.90;9.55;;;7.40;99.90;;;;;;5049536;28;20055;-67
2022/03/29 07:28:11;;;;;;;25.40;10.55;;;7.40;99.90;;;;;;5068775;28;20055;-66
2022/03/29 07:30:38;;;;;;;33.17;10.25;;;7.40;99.90;;;;;;5066892;28;20083;-66
2022/03/29 07:33:04;;;;;;;36.92;11.35;;;7.40;99.90;;;;;;5083306;28;20487;-66
2022/03/29 07:35:31;;;;;;;31.92;10.23;;;7.50;99.90;;;;;;5066785;28;20056;-66
2022/03/29 07:37:58;;;;;;;36.38;11.75;;;7.60;99.90;;;;;;5068731;28;20330;-66
2022/03/29 07:40:26;;;;;;;30.08;11.38;;;7.60;99.90;;;;;;5080245;28;20050;-66
2022/03/29 07:42:53;;;;;;;24.08;7.88;;;7.70;99.90;;;;;;5085498;28;20036;-67
2022/03/29 07:45:19;;;;;;;32.35;8.50;;;7.70;99.90;;;;;;5085295;28;20620;-66
2022/03/29 07:47:46;;;;;;;34.15;9.38;;;7.70;99.90;;;;;;5083587;28;20048;-66
2022/03/29 07:50:12;;;;;;;42.88;9.82;;;7.70;99.90;;;;;;5083096;28;20097;-66
2022/03/29 07:52:40;;;;;;;38.00;9.60;;;7.70;99.90;;;;;;5087082;28;20518;-66
2022/03/29 07:55:09;;;;;;;37.78;8.02;;;7.80;99.90;;;;;;5087456;28;20040;-66
2022/03/29 07:57:36;;;;;;;33.67;8.15;;;7.70;99.90;;;;;;5085558;28;20074;-67
2022/03/29 08:00:31;;;;;;;34.47;8.65;;;7.70;99.90;;;;;;5068560;28;20044;-67
2022/03/29 08:02:50;;;;;;;26.55;7.03;;;7.70;99.90;;;;;;5064402;28;20098;-66
2022/03/29 08:05:15;;;;;;;34.33;6.95;;;7.80;99.90;;;;;;5048329;28;20048;-67
2022/03/29 08:07:41;;;;;;;30.83;7.32;;;7.80;99.90;;;;;;5065865;28;20090;-67
2022/03/29 08:10:08;;;;;;;28.65;7.97;;;7.70;99.90;;;;;;5078939;28;20036;-66
2022/03/29 08:12:34;;;;;;;32.83;7.88;;;7.70;99.90;;;;;;5087696;28;20039;-66
2022/03/29 08:15:00;;;;;;;28.98;7.20;;;7.80;99.90;;;;;;5084518;28;20169;-66
2022/03/29 08:17:26;;;;;;;28.27;6.90;;;7.90;99.90;;;;;;5087558;28;20052;-66
2022/03/29 08:19:52;;;;;;;41.20;7.22;;;7.80;99.90;;;;;;5078196;28;20052;-66
2022/03/29 08:22:18;;;;;;;29.75;7.85;;;7.90;99.90;;;;;;5065296;28;20406;-67
2022/03/29 08:24:44;;;;;;;30.80;6.90;;;7.90;99.90;;;;;;5066707;28;20074;-66
2022/03/29 08:27:10;;;;;;;26.65;6.63;;;7.80;99.90;;;;;;5064101;28;20048;-66
2022/03/29 08:29:37;;;;;;;28.80;7.53;;;7.90;99.90;;;;;;5069430;28;20098;-67
2022/03/29 08:32:04;;;;;;;32.10;6.55;;;8.00;99.90;;;;;;5083708;28;20048;-66
2022/03/29 08:34:31;;;;;;;27.67;6.18;;;8.00;99.90;;;;;;5070006;28;20049;-66
2022/03/29 08:36:57;;;;;;;32.67;7.18;;;8.00;99.90;;;;;;5065480;28;20498;-66
2022/03/29 08:39:23;;;;;;;33.45;6.80;;;8.10;99.90;;;;;;5066369;28;20055;-66
2022/03/29 08:42:02;;;;;;;32.60;6.85;;;8.10;99.90;;;;;;5096683;28;20059;-66
2022/03/29 08:44:31;;;;;;;27.67;6.40;;;8.10;99.90;;;;;;5064297;28;20056;-66
2022/03/29 08:46:58;;;;;;;27.10;6.70;;;8.10;99.90;;;;;;5081633;28;20057;-66
2022/03/29 08:49:24;;;;;;;27.20;5.82;;;8.10;99.90;;;;;;5065529;28;20119;-66
2022/03/29 08:51:50;;;;;;;30.58;6.43;;;8.10;99.90;;;;;;5097216;28;20198;-66
2022/03/29 08:54:16;;;;;;;24.15;5.72;;;8.10;99.90;;;;;;5064672;28;20806;-67
2022/03/29 08:56:41;;;;;;;30.33;6.55;;;8.10;99.90;;;;;;5066276;28;20044;-67
2022/03/29 08:59:08;;;;;;;33.95;7.43;;;8.20;99.90;;;;;;5064488;28;20044;-66
2022/03/29 09:01:33;;;;;;;31.98;7.07;;;8.20;99.90;;;;;;5070808;28;20127;-66
2022/03/29 09:04:14;;;;;;;29.15;6.53;;;8.10;99.90;;;;;;5073375;28;20562;-66
2022/03/29 09:07:00;;;;;;;25.90;6.93;;;8.20;99.90;;;;;;5064209;28;20063;-66
2022/03/29 09:09:36;;;;;;;27.63;6.05;;;8.10;99.90;;;;;;5064997;28;20060;-66
2022/03/29 09:12:17;;;;;;;31.65;6.25;;;8.10;99.90;;;;;;5098343;28;20105;-66
2022/03/29 09:14:54;;;;;;;28.65;5.60;;;8.10;99.90;;;;;;5065333;28;20080;-66
2022/03/29 09:17:31;;;;;;;29.42;5.10;;;8.10;99.90;;;;;;5066962;28;20056;-66
2022/03/29 09:20:07;;;;;;;24.77;5.20;;;8.20;99.90;;;;;;5069121;28;20051;-67
2022/03/29 09:22:36;;;;;;;35.22;5.88;;;8.20;99.90;;;;;;5085633;28;20498;-66
2022/03/29 09:25:04;;;;;;;31.25;5.63;;;8.20;99.90;;;;;;5084884;28;20048;-66
2022/03/29 09:27:30;;;;;;;30.45;5.43;;;8.30;99.90;;;;;;5085576;28;20506;-67
2022/03/29 09:30:09;;;;;;;24.38;4.70;;;8.30;99.90;;;;;;5068426;28;20054;-67
2022/03/29 09:33:04;;;;;;;34.20;5.50;;;8.30;99.90;;;;;;5084393;28;20548;-67
2022/03/29 09:35:32;;;;;;;32.65;5.30;;;8.30;99.90;;;;;;5079429;28;20043;-67
2022/03/29 09:37:59;;;;;;;28.80;5.15;;;8.30;99.90;;;;;;5073213;28;20036;-67
2022/03/29 09:40:38;;;;;;;35.10;5.40;;;8.40;99.90;;;;;;5063841;28;20174;-66
2022/03/29 09:43:07;;;;;;;30.48;5.22;;;8.40;99.90;;;;;;5064412;28;20550;-67
2022/03/29 09:45:44;;;;;;;30.10;4.97;;;8.40;99.90;;;;;;5074353;28;20095;-67
2022/03/29 09:48:42;;;;;;;27.85;5.30;;;8.30;99.90;;;;;;5084531;28;20493;-66
2022/03/29 09:51:07;;;;;;;27.60;4.63;;;8.20;99.90;;;;;;5072108;28;20670;-66
2022/03/29 09:53:41;;;;;;;30.48;5.75;;;8.20;99.90;;;;;;5085372;28;20501;-67
2022/03/29 09:56:08;;;;;;;26.40;5.90;;;8.10;99.90;;;;;;5069451;28;20043;-67
2022/03/29 09:58:34;;;;;;;28.80;5.68;;;8.10;99.90;;;;;;5089180;28;20092;-66
2022/03/29 10:01:01;;;;;;;22.52;4.53;;;8.00;99.90;;;;;;5076933;28;20056;-66
2022/03/29 10:03:28;;;;;;;31.50;5.75;;;8.00;99.90;;;;;;5068816;28;20398;-66
2022/03/29 10:06:01;;;;;;;29.55;5.15;;;8.10;99.90;;;;;;5070271;28;20406;-67
2022/03/29 10:11:14;;;;;;;32.05;5.72;;;8.00;99.90;;;;;;5067801;28;20078;-67
2022/03/29 10:13:41;;;;;;;34.20;5.88;;;7.90;99.90;;;;;;5069828;28;20056;-67
2022/03/29 10:16:16;;;;;;;28.48;6.03;;;7.80;99.90;;;;;;5078045;28;20031;-67
2022/03/29 10:18:46;;;;;;;21.02;5.35;;;7.80;99.90;;;;;;5085981;28;20056;-67
2022/03/29 10:21:13;;;;;;;;;;;7.70;99.90;;;;;;5088280;28;20078;-67
2022/03/29 10:23:42;;;;;;;30.63;6.90;;;7.80;99.90;;;;;;5087672;28;20392;-66
2022/03/29 10:26:09;;;;;;;24.30;6.55;;;7.80;99.90;;;;;;5086707;28;20048;-66
2022/03/29 10:28:35;;;;;;;23.02;6.13;;;7.90;99.90;;;;;;5085328;28;20113;-67
2022/03/29 10:31:01;;;;;;;32.90;6.90;;;7.90;99.90;;;;;;5088112;28;20040;-66
2022/03/29 10:33:30;;;;;;;31.17;6.45;;;7.90;99.90;;;;;;5083957;28;20139;-67
2022/03/29 10:35:59;;;;;;;29.00;5.07;;;8.00;99.90;;;;;;5086628;28;20048;-67
2022/03/29 10:38:44;;;;;;;23.38;4.95;;;8.10;99.90;;;;;;5077647;28;20048;-66
2022/03/29 10:41:28;;;;;;;29.48;5.82;;;8.10;99.90;;;;;;5081405;28;20074;-66
2022/03/29 10:44:04;;;;;;;25.48;5.80;;;8.20;99.90;;;;;;5064973;28;20099;-66
2022/03/29 10:46:40;;;;;;;30.63;5.05;;;8.10;99.90;;;;;;5086945;28;20066;-66
2022/03/29 10:49:24;;;;;;;30.83;5.70;;;8.10;99.90;;;;;;5087470;28;20490;-66
2022/03/29 10:52:15;;;;;;;33.58;6.55;;;8.20;99.90;;;;;;5086831;28;20060;-67
2022/03/29 10:54:41;;;;;;;33.00;5.90;;;8.10;99.90;;;;;;5086840;28;20040;-66
2022/03/29 10:57:07;;;;;;;28.42;6.25;;;8.20;99.90;;;;;;5087625;28;20055;-66
2022/03/29 10:59:37;;;;;;;25.10;6.38;;;8.20;99.90;;;;;;5085661;28;20379;-67
2022/03/29 11:02:22;;;;;;;32.85;6.93;;;8.20;99.90;;;;;;5086034;28;20468;-67
2022/03/29 11:05:07;;;;;;;37.72;7.72;;;8.20;99.90;;;;;;5084629;28;20140;-66
2022/03/29 11:07:52;;;;;;;27.73;6.32;;;8.10;99.90;;;;;;5086474;28;20080;-67
2022/03/29 11:10:20;;;;;;;25.38;6.43;;;8.20;99.90;;;;;;5084995;28;20496;-67
2022/03/29 11:12:54;;;;;;;22.60;6.32;;;8.20;99.90;;;;;;5084272;28;20440;-66
2022/03/29 11:15:32;;;;;;;23.00;6.07;;;8.40;99.90;;;;;;5085896;28;20468;-66
2022/03/29 11:17:58;;;;;;;29.58;6.10;;;8.50;99.90;;;;;;5081567;28;20040;-66
2022/03/29 11:20:39;;;;;;;29.58;7.03;;;8.50;99.90;;;;;;5074210;28;20071;-67
2022/03/29 11:23:09;;;;;;;24.92;6.90;;;8.50;99.90;;;;;;5067577;28;20048;-67
2022/03/29 11:25:39;;;;;;;29.08;6.95;;;8.50;99.90;;;;;;5066743;28;20080;-66
2022/03/29 11:28:07;;;;;;;36.17;6.90;;;8.60;99.90;;;;;;5067208;28;20087;-66
2022/03/29 11:30:34;;;;;;;30.33;7.10;;;8.60;99.90;;;;;;5068900;28;20048;-66
2022/03/29 11:33:02;;;;;;;29.90;6.80;;;8.50;99.90;;;;;;5066819;28;20491;-67
2022/03/29 11:35:28;;;;;;;38.15;6.93;;;8.40;99.90;;;;;;5067910;28;20044;-67
2022/03/29 11:37:54;;;;;;;31.88;6.70;;;8.40;99.90;;;;;;5066942;28;20051;-67
2022/03/29 11:40:20;;;;;;;31.35;6.45;;;8.40;99.90;;;;;;5102817;28;20393;-67
2022/03/29 11:42:49;;;;;;;28.10;6.13;;;8.30;99.90;;;;;;5085779;28;20051;-66
2022/03/29 11:45:20;;;;;;;42.93;6.33;;;8.30;99.90;;;;;;5087513;28;20052;-66
2022/03/29 11:48:03;;;;;;;33.42;6.75;;;8.40;99.90;;;;;;5087404;28;20063;-67
2022/03/29 11:50:53;;;;;;;25.00;5.43;;;8.40;99.90;;;;;;5084722;28;20238;-66
2022/03/29 11:53:20;;;;;;;29.70;5.95;;;8.30;99.90;;;;;;5045893;28;20055;-66
2022/03/29 11:56:15;;;;;;;26.30;5.95;;;8.30;99.90;;;;;;5046459;28;20041;-67
2022/03/29 11:58:43;;;;;;;30.33;6.63;;;8.30;99.90;;;;;;5044880;28;20135;-66
2022/03/29 12:01:09;;;;;;;30.08;6.72;;;8.50;99.90;;;;;;5049972;28;20095;-67
2022/03/29 12:03:35;;;;;;;25.20;6.07;;;8.50;99.90;;;;;;5077175;28;20052;-67
2022/03/29 12:06:06;;;;;;;23.80;6.45;;;8.60;99.90;;;;;;5064410;28;20447;-66
2022/03/29 12:08:50;;;;;;;33.53;7.22;;;8.60;99.90;;;;;;5065495;28;20084;-66
2022/03/29 12:11:18;;;;;;;22.42;6.50;;;8.70;99.90;;;;;;5066612;28;20045;-66
2022/03/29 12:13:45;;;;;;;27.08;7.70;;;8.80;99.90;;;;;;5067518;28;20151;-67
2022/03/29 12:16:15;;;;;;;28.63;7.95;;;8.70;99.90;;;;;;5066026;28;20048;-67
2022/03/29 12:18:40;;;;;;;33.60;8.30;;;8.80;99.90;;;;;;5067411;28;20052;-66
2022/03/29 12:21:11;;;;;;;29.10;7.18;;;8.70;99.90;;;;;;5064404;28;20048;-67
2022/03/29 12:23:36;;;;;;;29.88;7.68;;;8.80;99.90;;;;;;5079263;28;20059;-66
2022/03/29 12:26:04;;;;;;;25.55;7.78;;;8.70;99.90;;;;;;5086186;28;20048;-66
2022/03/29 12:28:30;;;;;;;30.15;7.45;;;8.80;99.90;;;;;;5067913;28;20055;-67
2022/03/29 12:30:57;;;;;;;26.55;6.85;;;8.80;99.90;;;;;;5086691;28;20501;-67
2022/03/29 12:33:23;;;;;;;35.92;9.10;;;8.80;99.90;;;;;;5074784;28;20036;-66
2022/03/29 12:36:11;;;;;;;28.50;6.40;;;8.90;99.90;;;;;;5099217;28;20139;-66
2022/03/29 12:38:53;;;;;;;28.02;7.20;;;9.00;99.90;;;;;;5065466;28;20044;-66
2022/03/29 12:41:34;;;;;;;25.77;7.78;;;8.90;99.90;;;;;;5066215;28;20123;-67
2022/03/29 12:44:00;;;;;;;22.48;8.07;;;9.00;99.90;;;;;;5073395;28;20052;-66
2022/03/29 12:46:27;;;;;;;39.70;8.07;;;8.80;99.90;;;;;;5085322;28;20048;-66
2022/03/29 12:48:58;;;;;;;26.55;7.97;;;8.80;99.90;;;;;;5086741;28;20379;-66
2022/03/29 12:51:32;;;;;;;28.67;7.53;;;8.80;99.90;;;;;;5084988;28;20041;-66
2022/03/29 12:54:01;;;;;;;33.15;7.68;;;8.80;99.90;;;;;;5079999;28;20494;-66
2022/03/29 12:56:32;;;;;;;36.10;7.07;;;8.90;99.90;;;;;;5065019;28;20036;-66
2022/03/29 12:58:59;;;;;;;22.63;6.63;;;8.80;99.90;;;;;;5060729;28;20454;-67